sensor_id;sensor_type;location;lat;lon;timestamp;P1;durP1;ratioP1;P2;durP2;ratioP2
2972;SDS011;1496;51.404;7.232;2023-04-03T00:01:04;10.17;;;6.47;;
2972;SDS011;1496;51.404;7.232;2023-04-03T00:03:33;8.63;;;6.40;;
2972;SDS011;1496;51.404;7.232;2023-04-03T00:06:01;9.17;;;6.60;;
2972;SDS011;1496;51.404;7.232;2023-04-03T00:08:28;10.40;;;7.13;;
2972;SDS011;1496;51.404;7.232;2023-04-03T00:10:57;7.40;;;6.13;;
2972;SDS011;1496;51.404;7.232;2023-04-03T00:13:24;7.37;;;5.90;;
2972;SDS011;1496;51.404;7.232;2023-04-03T00:15:51;11.53;;;7.87;;
2972;SDS011;1496;51.404;7.232;2023-04-03T00:18:20;9.70;;;6.60;;
2972;SDS011;1496;51.404;7.232;2023-04-03T00:20:48;9.30;;;6.80;;
2972;SDS011;1496;51.404;7.232;2023-04-03T00:23:15;11.13;;;6.70;;
2972;SDS011;1496;51.404;7.232;2023-04-03T00:25:42;9.60;;;6.70;;
2972;SDS011;1496;51.404;7.232;2023-04-03T00:28:10;12.07;;;6.80;;
2972;SDS011;1496;51.404;7.232;2023-04-03T00:30:37;8.53;;;6.30;;
2972;SDS011;1496;51.404;7.232;2023-04-03T00:33:05;12.50;;;6.70;;
2972;SDS011;1496;51.404;7.232;2023-04-03T00:35:33;10.87;;;6.90;;
2972;SDS011;1496;51.404;7.232;2023-04-03T00:38:00;8.53;;;6.40;;
2972;SDS011;1496;51.404;7.232;2023-04-03T00:40:32;9.63;;;6.33;;
2972;SDS011;1496;51.404;7.232;2023-04-03T00:43:10;8.93;;;7.40;;
2972;SDS011;1496;51.404;7.232;2023-04-03T00:45:52;10.10;;;7.40;;
2972;SDS011;1496;51.404;7.232;2023-04-03T00:48:34;9.40;;;7.03;;
2972;SDS011;1496;51.404;7.232;2023-04-03T00:51:11;7.43;;;6.33;;
2972;SDS011;1496;51.404;7.232;2023-04-03T00:53:46;10.87;;;6.93;;
2972;SDS011;1496;51.404;7.232;2023-04-03T00:56:17;11.43;;;7.67;;
2972;SDS011;1496;51.404;7.232;2023-04-03T00:59:23;8.93;;;7.47;;
2972;SDS011;1496;51.404;7.232;2023-04-03T01:01:50;7.53;;;6.83;;
2972;SDS011;1496;51.404;7.232;2023-04-03T01:04:31;13.63;;;7.50;;
2972;SDS011;1496;51.404;7.232;2023-04-03T01:07:04;10.30;;;7.10;;
2972;SDS011;1496;51.404;7.232;2023-04-03T01:09:38;11.03;;;7.10;;
2972;SDS011;1496;51.404;7.232;2023-04-03T01:14:51;9.80;;;7.00;;
2972;SDS011;1496;51.404;7.232;2023-04-03T01:17:42;11.20;;;7.63;;
2972;SDS011;1496;51.404;7.232;2023-04-03T01:25:38;11.33;;;7.57;;
2972;SDS011;1496;51.404;7.232;2023-04-03T01:28:10;9.73;;;6.63;;
2972;SDS011;1496;51.404;7.232;2023-04-03T01:30:44;11.97;;;7.60;;
2972;SDS011;1496;51.404;7.232;2023-04-03T01:33:20;10.50;;;8.57;;
2972;SDS011;1496;51.404;7.232;2023-04-03T01:35:47;12.17;;;8.63;;
2972;SDS011;1496;51.404;7.232;2023-04-03T01:38:15;12.57;;;8.87;;
2972;SDS011;1496;51.404;7.232;2023-04-03T01:40:42;11.53;;;8.47;;
2972;SDS011;1496;51.404;7.232;2023-04-03T01:43:09;9.43;;;7.50;;
2972;SDS011;1496;51.404;7.232;2023-04-03T01:45:37;13.50;;;9.00;;
2972;SDS011;1496;51.404;7.232;2023-04-03T01:48:03;16.30;;;9.20;;
2972;SDS011;1496;51.404;7.232;2023-04-03T01:50:32;12.60;;;9.53;;
2972;SDS011;1496;51.404;7.232;2023-04-03T01:52:59;14.33;;;10.20;;
2972;SDS011;1496;51.404;7.232;2023-04-03T01:55:28;12.03;;;9.10;;
2972;SDS011;1496;51.404;7.232;2023-04-03T01:57:57;13.33;;;8.50;;
2972;SDS011;1496;51.404;7.232;2023-04-03T02:00:25;12.80;;;9.30;;
2972;SDS011;1496;51.404;7.232;2023-04-03T02:02:52;12.33;;;9.23;;
2972;SDS011;1496;51.404;7.232;2023-04-03T02:05:23;12.73;;;10.17;;
2972;SDS011;1496;51.404;7.232;2023-04-03T02:07:50;9.43;;;8.43;;
2972;SDS011;1496;51.404;7.232;2023-04-03T02:10:20;9.90;;;8.20;;
2972;SDS011;1496;51.404;7.232;2023-04-03T02:12:50;11.20;;;9.57;;
2972;SDS011;1496;51.404;7.232;2023-04-03T02:15:19;9.07;;;8.17;;
2972;SDS011;1496;51.404;7.232;2023-04-03T02:17:51;11.30;;;8.20;;
2972;SDS011;1496;51.404;7.232;2023-04-03T02:20:20;11.97;;;8.80;;
2972;SDS011;1496;51.404;7.232;2023-04-03T02:22:48;14.07;;;7.87;;
2972;SDS011;1496;51.404;7.232;2023-04-03T02:25:16;11.00;;;8.60;;
2972;SDS011;1496;51.404;7.232;2023-04-03T02:27:43;10.67;;;8.80;;
2972;SDS011;1496;51.404;7.232;2023-04-03T02:30:10;8.30;;;7.03;;
2972;SDS011;1496;51.404;7.232;2023-04-03T02:32:39;12.60;;;8.30;;
2972;SDS011;1496;51.404;7.232;2023-04-03T02:35:09;10.33;;;8.30;;
2972;SDS011;1496;51.404;7.232;2023-04-03T02:37:36;10.10;;;7.10;;
2972;SDS011;1496;51.404;7.232;2023-04-03T02:40:03;9.37;;;8.20;;
2972;SDS011;1496;51.404;7.232;2023-04-03T02:42:35;13.90;;;7.87;;
2972;SDS011;1496;51.404;7.232;2023-04-03T02:45:02;14.47;;;8.30;;
2972;SDS011;1496;51.404;7.232;2023-04-03T02:47:29;10.40;;;7.30;;
2972;SDS011;1496;51.404;7.232;2023-04-03T02:49:58;12.67;;;7.63;;
2972;SDS011;1496;51.404;7.232;2023-04-03T02:52:26;10.77;;;7.77;;
2972;SDS011;1496;51.404;7.232;2023-04-03T02:54:56;14.27;;;7.10;;
2972;SDS011;1496;51.404;7.232;2023-04-03T02:57:24;12.07;;;7.47;;
2972;SDS011;1496;51.404;7.232;2023-04-03T02:59:51;14.80;;;6.80;;
2972;SDS011;1496;51.404;7.232;2023-04-03T03:02:20;12.70;;;5.93;;
2972;SDS011;1496;51.404;7.232;2023-04-03T03:04:47;10.40;;;6.57;;
2972;SDS011;1496;51.404;7.232;2023-04-03T03:07:13;12.80;;;6.90;;
2972;SDS011;1496;51.404;7.232;2023-04-03T03:09:41;9.93;;;6.10;;
2972;SDS011;1496;51.404;7.232;2023-04-03T03:12:07;9.20;;;5.90;;
2972;SDS011;1496;51.404;7.232;2023-04-03T03:14:36;8.47;;;5.43;;
2972;SDS011;1496;51.404;7.232;2023-04-03T03:17:03;8.00;;;5.60;;
2972;SDS011;1496;51.404;7.232;2023-04-03T03:19:31;11.50;;;6.13;;
2972;SDS011;1496;51.404;7.232;2023-04-03T03:21:57;8.17;;;4.33;;
2972;SDS011;1496;51.404;7.232;2023-04-03T03:24:25;6.77;;;4.70;;
2972;SDS011;1496;51.404;7.232;2023-04-03T03:26:52;9.87;;;5.13;;
2972;SDS011;1496;51.404;7.232;2023-04-03T03:29:22;11.43;;;4.53;;
2972;SDS011;1496;51.404;7.232;2023-04-03T03:31:49;7.87;;;4.10;;
2972;SDS011;1496;51.404;7.232;2023-04-03T03:34:17;7.97;;;4.30;;
2972;SDS011;1496;51.404;7.232;2023-04-03T03:36:44;8.00;;;4.50;;
2972;SDS011;1496;51.404;7.232;2023-04-03T03:39:13;5.73;;;3.73;;
2972;SDS011;1496;51.404;7.232;2023-04-03T03:41:41;8.10;;;4.53;;
2972;SDS011;1496;51.404;7.232;2023-04-03T03:44:08;7.27;;;4.33;;
2972;SDS011;1496;51.404;7.232;2023-04-03T03:46:36;9.90;;;4.27;;
2972;SDS011;1496;51.404;7.232;2023-04-03T03:49:04;6.93;;;3.80;;
2972;SDS011;1496;51.404;7.232;2023-04-03T03:51:32;9.37;;;4.27;;
2972;SDS011;1496;51.404;7.232;2023-04-03T03:54:01;8.13;;;4.00;;
2972;SDS011;1496;51.404;7.232;2023-04-03T03:56:28;8.00;;;3.60;;
2972;SDS011;1496;51.404;7.232;2023-04-03T03:58:55;6.30;;;3.83;;
2972;SDS011;1496;51.404;7.232;2023-04-03T04:01:23;5.77;;;3.80;;
2972;SDS011;1496;51.404;7.232;2023-04-03T04:03:50;7.63;;;3.97;;
2972;SDS011;1496;51.404;7.232;2023-04-03T04:06:23;5.30;;;4.13;;
2972;SDS011;1496;51.404;7.232;2023-04-03T04:08:58;6.87;;;4.07;;
2972;SDS011;1496;51.404;7.232;2023-04-03T04:11:26;6.40;;;3.53;;
2972;SDS011;1496;51.404;7.232;2023-04-03T04:13:54;8.13;;;3.77;;
2972;SDS011;1496;51.404;7.232;2023-04-03T04:16:25;6.20;;;3.63;;
2972;SDS011;1496;51.404;7.232;2023-04-03T04:18:54;8.43;;;3.60;;
2972;SDS011;1496;51.404;7.232;2023-04-03T04:21:21;5.03;;;3.50;;
2972;SDS011;1496;51.404;7.232;2023-04-03T04:23:51;3.73;;;2.87;;
2972;SDS011;1496;51.404;7.232;2023-04-03T04:26:19;5.67;;;3.50;;
2972;SDS011;1496;51.404;7.232;2023-04-03T04:28:47;6.10;;;3.37;;
2972;SDS011;1496;51.404;7.232;2023-04-03T04:31:17;5.77;;;2.90;;
2972;SDS011;1496;51.404;7.232;2023-04-03T04:33:45;7.10;;;3.40;;
2972;SDS011;1496;51.404;7.232;2023-04-03T04:36:14;7.73;;;2.27;;
2972;SDS011;1496;51.404;7.232;2023-04-03T04:38:44;5.70;;;2.80;;
2972;SDS011;1496;51.404;7.232;2023-04-03T04:41:11;9.17;;;3.17;;
2972;SDS011;1496;51.404;7.232;2023-04-03T04:43:38;6.83;;;3.00;;
2972;SDS011;1496;51.404;7.232;2023-04-03T04:46:06;2.90;;;2.60;;
2972;SDS011;1496;51.404;7.232;2023-04-03T04:48:41;3.53;;;2.40;;
2972;SDS011;1496;51.404;7.232;2023-04-03T04:51:09;4.53;;;2.50;;
2972;SDS011;1496;51.404;7.232;2023-04-03T04:53:40;4.23;;;2.60;;
2972;SDS011;1496;51.404;7.232;2023-04-03T04:56:10;5.90;;;3.07;;
2972;SDS011;1496;51.404;7.232;2023-04-03T04:58:38;6.80;;;3.10;;
2972;SDS011;1496;51.404;7.232;2023-04-03T05:01:07;11.00;;;5.73;;
2972;SDS011;1496;51.404;7.232;2023-04-03T05:03:43;5.83;;;2.80;;
2972;SDS011;1496;51.404;7.232;2023-04-03T05:06:12;4.53;;;2.70;;
2972;SDS011;1496;51.404;7.232;2023-04-03T05:08:40;8.30;;;3.20;;
2972;SDS011;1496;51.404;7.232;2023-04-03T05:11:10;4.93;;;2.60;;
2972;SDS011;1496;51.404;7.232;2023-04-03T05:13:39;8.13;;;2.87;;
2972;SDS011;1496;51.404;7.232;2023-04-03T05:16:06;6.93;;;2.80;;
2972;SDS011;1496;51.404;7.232;2023-04-03T05:18:34;4.73;;;2.27;;
2972;SDS011;1496;51.404;7.232;2023-04-03T05:21:06;9.27;;;3.00;;
2972;SDS011;1496;51.404;7.232;2023-04-03T05:23:34;6.27;;;2.73;;
2972;SDS011;1496;51.404;7.232;2023-04-03T05:26:03;9.13;;;2.77;;
2972;SDS011;1496;51.404;7.232;2023-04-03T05:28:30;4.20;;;3.07;;
2972;SDS011;1496;51.404;7.232;2023-04-03T05:30:58;5.73;;;2.77;;
2972;SDS011;1496;51.404;7.232;2023-04-03T05:33:31;3.90;;;2.63;;
2972;SDS011;1496;51.404;7.232;2023-04-03T05:36:06;6.90;;;3.60;;
2972;SDS011;1496;51.404;7.232;2023-04-03T05:38:40;8.20;;;3.30;;
2972;SDS011;1496;51.404;7.232;2023-04-03T05:41:07;8.20;;;2.90;;
2972;SDS011;1496;51.404;7.232;2023-04-03T05:43:34;4.83;;;2.63;;
2972;SDS011;1496;51.404;7.232;2023-04-03T05:46:03;9.63;;;3.60;;
2972;SDS011;1496;51.404;7.232;2023-04-03T05:48:34;4.40;;;2.70;;
2972;SDS011;1496;51.404;7.232;2023-04-03T05:51:06;6.50;;;2.80;;
2972;SDS011;1496;51.404;7.232;2023-04-03T05:53:41;4.97;;;2.93;;
2972;SDS011;1496;51.404;7.232;2023-04-03T05:56:11;9.57;;;2.70;;
2972;SDS011;1496;51.404;7.232;2023-04-03T05:58:39;7.70;;;3.70;;
2972;SDS011;1496;51.404;7.232;2023-04-03T06:01:06;7.17;;;3.53;;
2972;SDS011;1496;51.404;7.232;2023-04-03T06:03:37;9.23;;;3.47;;
2972;SDS011;1496;51.404;7.232;2023-04-03T06:06:05;6.93;;;4.17;;
2972;SDS011;1496;51.404;7.232;2023-04-03T06:08:33;6.43;;;3.20;;
2972;SDS011;1496;51.404;7.232;2023-04-03T06:11:05;8.27;;;4.47;;
2972;SDS011;1496;51.404;7.232;2023-04-03T06:13:35;7.53;;;3.77;;
2972;SDS011;1496;51.404;7.232;2023-04-03T06:16:03;10.83;;;4.00;;
2972;SDS011;1496;51.404;7.232;2023-04-03T06:18:52;4.50;;;2.90;;
2972;SDS011;1496;51.404;7.232;2023-04-03T06:21:20;7.97;;;2.80;;
2972;SDS011;1496;51.404;7.232;2023-04-03T06:23:50;6.27;;;3.20;;
2972;SDS011;1496;51.404;7.232;2023-04-03T06:26:18;6.20;;;2.93;;
2972;SDS011;1496;51.404;7.232;2023-04-03T06:28:46;12.23;;;3.97;;
2972;SDS011;1496;51.404;7.232;2023-04-03T06:31:14;8.70;;;4.00;;
2972;SDS011;1496;51.404;7.232;2023-04-03T06:33:41;9.53;;;3.83;;
2972;SDS011;1496;51.404;7.232;2023-04-03T06:36:09;7.90;;;3.50;;
2972;SDS011;1496;51.404;7.232;2023-04-03T06:38:37;11.93;;;3.67;;
2972;SDS011;1496;51.404;7.232;2023-04-03T06:41:05;6.50;;;3.00;;
2972;SDS011;1496;51.404;7.232;2023-04-03T06:43:33;5.87;;;3.03;;
2972;SDS011;1496;51.404;7.232;2023-04-03T06:46:00;7.90;;;3.83;;
2972;SDS011;1496;51.404;7.232;2023-04-03T06:48:28;8.67;;;3.60;;
2972;SDS011;1496;51.404;7.232;2023-04-03T06:50:56;8.77;;;3.07;;
2972;SDS011;1496;51.404;7.232;2023-04-03T06:53:24;11.10;;;3.20;;
2972;SDS011;1496;51.404;7.232;2023-04-03T06:55:51;3.00;;;2.40;;
2972;SDS011;1496;51.404;7.232;2023-04-03T06:58:18;4.80;;;2.50;;
2972;SDS011;1496;51.404;7.232;2023-04-03T07:00:46;2.60;;;2.37;;
2972;SDS011;1496;51.404;7.232;2023-04-03T07:03:13;10.73;;;3.00;;
2972;SDS011;1496;51.404;7.232;2023-04-03T07:05:43;4.70;;;2.80;;
2972;SDS011;1496;51.404;7.232;2023-04-03T07:08:10;7.43;;;2.77;;
2972;SDS011;1496;51.404;7.232;2023-04-03T07:10:40;4.23;;;2.70;;
2972;SDS011;1496;51.404;7.232;2023-04-03T07:13:08;6.07;;;2.80;;
2972;SDS011;1496;51.404;7.232;2023-04-03T07:15:37;3.60;;;2.40;;
2972;SDS011;1496;51.404;7.232;2023-04-03T07:18:04;6.20;;;2.63;;
2972;SDS011;1496;51.404;7.232;2023-04-03T07:20:31;4.80;;;2.50;;
2972;SDS011;1496;51.404;7.232;2023-04-03T07:22:58;8.43;;;4.30;;
2972;SDS011;1496;51.404;7.232;2023-04-03T07:25:28;3.83;;;2.20;;
2972;SDS011;1496;51.404;7.232;2023-04-03T07:27:55;6.43;;;3.00;;
2972;SDS011;1496;51.404;7.232;2023-04-03T07:33:23;8.40;;;2.70;;
2972;SDS011;1496;51.404;7.232;2023-04-03T07:35:49;6.87;;;2.43;;
2972;SDS011;1496;51.404;7.232;2023-04-03T07:38:17;9.70;;;2.90;;
2972;SDS011;1496;51.404;7.232;2023-04-03T07:40:49;11.20;;;3.40;;
2972;SDS011;1496;51.404;7.232;2023-04-03T07:43:17;6.87;;;1.80;;
2972;SDS011;1496;51.404;7.232;2023-04-03T07:45:44;4.93;;;2.50;;
2972;SDS011;1496;51.404;7.232;2023-04-03T07:48:12;7.30;;;2.90;;
2972;SDS011;1496;51.404;7.232;2023-04-03T07:50:41;4.60;;;2.10;;
2972;SDS011;1496;51.404;7.232;2023-04-03T07:53:10;5.60;;;2.13;;
2972;SDS011;1496;51.404;7.232;2023-04-03T07:55:39;7.37;;;2.20;;
2972;SDS011;1496;51.404;7.232;2023-04-03T07:58:14;4.80;;;2.40;;
2972;SDS011;1496;51.404;7.232;2023-04-03T08:00:48;8.30;;;2.50;;
2972;SDS011;1496;51.404;7.232;2023-04-03T08:03:16;9.57;;;2.17;;
2972;SDS011;1496;51.404;7.232;2023-04-03T08:05:45;5.47;;;1.90;;
2972;SDS011;1496;51.404;7.232;2023-04-03T08:08:14;2.37;;;1.80;;
2972;SDS011;1496;51.404;7.232;2023-04-03T08:10:47;4.00;;;2.40;;
2972;SDS011;1496;51.404;7.232;2023-04-03T08:13:20;6.00;;;2.27;;
2972;SDS011;1496;51.404;7.232;2023-04-03T08:15:48;5.10;;;1.83;;
2972;SDS011;1496;51.404;7.232;2023-04-03T08:18:18;3.60;;;1.70;;
2972;SDS011;1496;51.404;7.232;2023-04-03T08:20:47;3.37;;;1.47;;
2972;SDS011;1496;51.404;7.232;2023-04-03T08:23:14;4.60;;;1.97;;
2972;SDS011;1496;51.404;7.232;2023-04-03T08:25:42;5.87;;;2.10;;
2972;SDS011;1496;51.404;7.232;2023-04-03T08:28:11;5.10;;;2.10;;
2972;SDS011;1496;51.404;7.232;2023-04-03T08:30:50;4.80;;;2.17;;
2972;SDS011;1496;51.404;7.232;2023-04-03T08:33:16;8.20;;;1.60;;
2972;SDS011;1496;51.404;7.232;2023-04-03T08:35:44;5.67;;;1.73;;
2972;SDS011;1496;51.404;7.232;2023-04-03T08:38:10;5.13;;;2.07;;
2972;SDS011;1496;51.404;7.232;2023-04-03T08:40:37;4.43;;;2.00;;
2972;SDS011;1496;51.404;7.232;2023-04-03T08:45:57;8.13;;;1.77;;
2972;SDS011;1496;51.404;7.232;2023-04-03T08:48:41;4.93;;;1.93;;
2972;SDS011;1496;51.404;7.232;2023-04-03T08:51:17;1.93;;;1.37;;
2972;SDS011;1496;51.404;7.232;2023-04-03T08:53:56;4.50;;;2.00;;
2972;SDS011;1496;51.404;7.232;2023-04-03T08:56:31;3.00;;;1.30;;
2972;SDS011;1496;51.404;7.232;2023-04-03T08:59:06;5.23;;;1.80;;
2972;SDS011;1496;51.404;7.232;2023-04-03T09:01:40;6.73;;;1.53;;
2972;SDS011;1496;51.404;7.232;2023-04-03T09:04:10;3.60;;;1.57;;
2972;SDS011;1496;51.404;7.232;2023-04-03T09:06:39;5.43;;;1.60;;
2972;SDS011;1496;51.404;7.232;2023-04-03T09:09:17;4.10;;;1.63;;
2972;SDS011;1496;51.404;7.232;2023-04-03T09:12:23;5.23;;;1.77;;
2972;SDS011;1496;51.404;7.232;2023-04-03T09:14:57;4.20;;;1.77;;
2972;SDS011;1496;51.404;7.232;2023-04-03T09:17:51;4.00;;;1.60;;
2972;SDS011;1496;51.404;7.232;2023-04-03T09:20:28;5.77;;;2.20;;
2972;SDS011;1496;51.404;7.232;2023-04-03T09:23:46;4.03;;;2.27;;
2972;SDS011;1496;51.404;7.232;2023-04-03T09:25:57;7.77;;;1.70;;
2972;SDS011;1496;51.404;7.232;2023-04-03T09:28:32;4.50;;;1.57;;
2972;SDS011;1496;51.404;7.232;2023-04-03T09:31:14;2.30;;;1.60;;
2972;SDS011;1496;51.404;7.232;2023-04-03T09:33:55;4.10;;;1.50;;
2972;SDS011;1496;51.404;7.232;2023-04-03T09:36:39;4.33;;;1.40;;
2972;SDS011;1496;51.404;7.232;2023-04-03T09:39:17;1.30;;;1.00;;
2972;SDS011;1496;51.404;7.232;2023-04-03T09:44:34;6.90;;;1.50;;
2972;SDS011;1496;51.404;7.232;2023-04-03T09:47:17;7.73;;;1.80;;
2972;SDS011;1496;51.404;7.232;2023-04-03T09:49:49;3.93;;;1.20;;
2972;SDS011;1496;51.404;7.232;2023-04-03T09:52:24;1.67;;;1.20;;
2972;SDS011;1496;51.404;7.232;2023-04-03T09:54:52;4.03;;;1.07;;
2972;SDS011;1496;51.404;7.232;2023-04-03T09:57:18;3.57;;;1.40;;
2972;SDS011;1496;51.404;7.232;2023-04-03T09:59:47;3.47;;;1.40;;
2972;SDS011;1496;51.404;7.232;2023-04-03T10:02:36;6.30;;;1.50;;
2972;SDS011;1496;51.404;7.232;2023-04-03T10:08:08;4.13;;;1.93;;
2972;SDS011;1496;51.404;7.232;2023-04-03T10:10:43;2.13;;;1.20;;
2972;SDS011;1496;51.404;7.232;2023-04-03T10:13:15;5.70;;;1.47;;
2972;SDS011;1496;51.404;7.232;2023-04-03T10:15:56;5.30;;;1.70;;
2972;SDS011;1496;51.404;7.232;2023-04-03T10:21:48;3.03;;;1.60;;
2972;SDS011;1496;51.404;7.232;2023-04-03T10:24:28;5.90;;;1.57;;
2972;SDS011;1496;51.404;7.232;2023-04-03T10:27:13;5.63;;;1.30;;
2972;SDS011;1496;51.404;7.232;2023-04-03T10:38:38;3.97;;;1.60;;
2972;SDS011;1496;51.404;7.232;2023-04-03T10:41:44;2.70;;;1.50;;
2972;SDS011;1496;51.404;7.232;2023-04-03T10:44:52;3.00;;;1.37;;
2972;SDS011;1496;51.404;7.232;2023-04-03T10:47:25;3.23;;;1.47;;
2972;SDS011;1496;51.404;7.232;2023-04-03T10:50:52;5.20;;;1.80;;
2972;SDS011;1496;51.404;7.232;2023-04-03T10:53:09;3.00;;;1.43;;
2972;SDS011;1496;51.404;7.232;2023-04-03T10:58:38;6.93;;;1.30;;
2972;SDS011;1496;51.404;7.232;2023-04-03T11:01:08;3.80;;;1.27;;
2972;SDS011;1496;51.404;7.232;2023-04-03T11:03:41;2.57;;;1.20;;
2972;SDS011;1496;51.404;7.232;2023-04-03T11:06:12;5.17;;;1.17;;
2972;SDS011;1496;51.404;7.232;2023-04-03T11:08:44;2.67;;;1.00;;
2972;SDS011;1496;51.404;7.232;2023-04-03T11:11:16;2.27;;;1.20;;
2972;SDS011;1496;51.404;7.232;2023-04-03T11:16:42;4.53;;;1.50;;
2972;SDS011;1496;51.404;7.232;2023-04-03T11:19:28;2.27;;;1.17;;
2972;SDS011;1496;51.404;7.232;2023-04-03T11:22:25;3.47;;;1.17;;
2972;SDS011;1496;51.404;7.232;2023-04-03T11:25:20;1.30;;;0.87;;
2972;SDS011;1496;51.404;7.232;2023-04-03T11:27:59;3.43;;;1.00;;
2972;SDS011;1496;51.404;7.232;2023-04-03T11:39:00;1.47;;;1.00;;
2972;SDS011;1496;51.404;7.232;2023-04-03T11:41:37;2.17;;;1.03;;
2972;SDS011;1496;51.404;7.232;2023-04-03T11:44:33;2.90;;;1.30;;
2972;SDS011;1496;51.404;7.232;2023-04-03T11:46:57;3.80;;;1.00;;
2972;SDS011;1496;51.404;7.232;2023-04-03T12:08:44;2.77;;;1.20;;
2972;SDS011;1496;51.404;7.232;2023-04-03T12:16:30;2.90;;;1.27;;
2972;SDS011;1496;51.404;7.232;2023-04-03T12:38:19;5.93;;;1.80;;
2972;SDS011;1496;51.404;7.232;2023-04-03T12:41:19;8.63;;;1.80;;
2972;SDS011;1496;51.404;7.232;2023-04-03T12:46:35;2.27;;;1.13;;
2972;SDS011;1496;51.404;7.232;2023-04-03T12:49:37;3.00;;;1.10;;
2972;SDS011;1496;51.404;7.232;2023-04-03T12:52:12;1.93;;;1.13;;
2972;SDS011;1496;51.404;7.232;2023-04-03T12:55:07;4.30;;;1.00;;
2972;SDS011;1496;51.404;7.232;2023-04-03T12:57:42;8.50;;;1.30;;
2972;SDS011;1496;51.404;7.232;2023-04-03T13:00:20;2.83;;;1.20;;
2972;SDS011;1496;51.404;7.232;2023-04-03T13:02:55;2.10;;;1.10;;
2972;SDS011;1496;51.404;7.232;2023-04-03T13:05:23;2.97;;;1.47;;
2972;SDS011;1496;51.404;7.232;2023-04-03T13:07:54;5.00;;;1.63;;
2972;SDS011;1496;51.404;7.232;2023-04-03T13:10:32;3.40;;;1.30;;
2972;SDS011;1496;51.404;7.232;2023-04-03T13:13:10;2.30;;;1.33;;
2972;SDS011;1496;51.404;7.232;2023-04-03T13:15:41;2.30;;;1.30;;
2972;SDS011;1496;51.404;7.232;2023-04-03T13:18:27;3.40;;;1.30;;
2972;SDS011;1496;51.404;7.232;2023-04-03T13:21:02;2.73;;;1.37;;
2972;SDS011;1496;51.404;7.232;2023-04-03T13:23:31;2.10;;;1.20;;
2972;SDS011;1496;51.404;7.232;2023-04-03T13:26:02;2.70;;;1.23;;
2972;SDS011;1496;51.404;7.232;2023-04-03T13:28:31;4.20;;;1.30;;
2972;SDS011;1496;51.404;7.232;2023-04-03T13:33:43;7.73;;;1.60;;
2972;SDS011;1496;51.404;7.232;2023-04-03T13:36:29;3.50;;;1.27;;
2972;SDS011;1496;51.404;7.232;2023-04-03T13:39:02;2.43;;;1.20;;
2972;SDS011;1496;51.404;7.232;2023-04-03T13:42:22;1.93;;;0.93;;
2972;SDS011;1496;51.404;7.232;2023-04-03T13:44:48;2.50;;;1.40;;
2972;SDS011;1496;51.404;7.232;2023-04-03T13:50:02;3.13;;;1.40;;
2972;SDS011;1496;51.404;7.232;2023-04-03T13:52:48;1.97;;;1.00;;
2972;SDS011;1496;51.404;7.232;2023-04-03T13:55:25;5.27;;;1.80;;
2972;SDS011;1496;51.404;7.232;2023-04-03T13:57:58;3.90;;;1.30;;
2972;SDS011;1496;51.404;7.232;2023-04-03T14:02:54;2.00;;;1.10;;
2972;SDS011;1496;51.404;7.232;2023-04-03T14:05:23;1.93;;;1.10;;
2972;SDS011;1496;51.404;7.232;2023-04-03T14:07:53;3.13;;;1.40;;
2972;SDS011;1496;51.404;7.232;2023-04-03T14:10:21;2.97;;;1.10;;
2972;SDS011;1496;51.404;7.232;2023-04-03T14:12:49;4.40;;;1.00;;
2972;SDS011;1496;51.404;7.232;2023-04-03T14:15:22;2.60;;;1.23;;
2972;SDS011;1496;51.404;7.232;2023-04-03T14:17:52;4.30;;;1.30;;
2972;SDS011;1496;51.404;7.232;2023-04-03T14:20:20;6.90;;;1.70;;
2972;SDS011;1496;51.404;7.232;2023-04-03T14:22:49;1.63;;;0.90;;
2972;SDS011;1496;51.404;7.232;2023-04-03T14:25:22;7.20;;;1.30;;
2972;SDS011;1496;51.404;7.232;2023-04-03T14:27:52;3.17;;;1.80;;
2972;SDS011;1496;51.404;7.232;2023-04-03T14:30:23;2.90;;;1.00;;
2972;SDS011;1496;51.404;7.232;2023-04-03T14:32:51;1.90;;;1.03;;
2972;SDS011;1496;51.404;7.232;2023-04-03T14:35:19;4.13;;;1.10;;
2972;SDS011;1496;51.404;7.232;2023-04-03T14:37:47;3.87;;;1.27;;
2972;SDS011;1496;51.404;7.232;2023-04-03T14:40:17;1.83;;;0.90;;
2972;SDS011;1496;51.404;7.232;2023-04-03T14:42:49;6.03;;;1.37;;
2972;SDS011;1496;51.404;7.232;2023-04-03T14:45:20;3.00;;;1.00;;
2972;SDS011;1496;51.404;7.232;2023-04-03T14:47:48;2.20;;;1.23;;
2972;SDS011;1496;51.404;7.232;2023-04-03T14:50:18;3.37;;;1.37;;
2972;SDS011;1496;51.404;7.232;2023-04-03T14:52:48;3.27;;;1.47;;
2972;SDS011;1496;51.404;7.232;2023-04-03T14:55:19;1.40;;;1.10;;
2972;SDS011;1496;51.404;7.232;2023-04-03T14:57:48;2.97;;;1.20;;
2972;SDS011;1496;51.404;7.232;2023-04-03T15:00:19;2.27;;;1.10;;
2972;SDS011;1496;51.404;7.232;2023-04-03T15:02:47;2.50;;;1.20;;
2972;SDS011;1496;51.404;7.232;2023-04-03T15:05:14;2.97;;;1.30;;
2972;SDS011;1496;51.404;7.232;2023-04-03T15:07:42;1.80;;;1.00;;
2972;SDS011;1496;51.404;7.232;2023-04-03T15:10:24;2.83;;;1.43;;
2972;SDS011;1496;51.404;7.232;2023-04-03T15:12:56;1.63;;;1.10;;
2972;SDS011;1496;51.404;7.232;2023-04-03T15:15:23;2.20;;;1.57;;
2972;SDS011;1496;51.404;7.232;2023-04-03T15:17:55;2.50;;;1.50;;
2972;SDS011;1496;51.404;7.232;2023-04-03T15:20:28;2.00;;;1.20;;
2972;SDS011;1496;51.404;7.232;2023-04-03T15:22:57;3.83;;;1.97;;
2972;SDS011;1496;51.404;7.232;2023-04-03T15:25:27;4.70;;;1.57;;
2972;SDS011;1496;51.404;7.232;2023-04-03T15:27:55;3.83;;;1.37;;
2972;SDS011;1496;51.404;7.232;2023-04-03T15:30:22;4.50;;;1.23;;
2972;SDS011;1496;51.404;7.232;2023-04-03T15:32:49;1.60;;;1.23;;
2972;SDS011;1496;51.404;7.232;2023-04-03T15:35:18;2.50;;;1.30;;
2972;SDS011;1496;51.404;7.232;2023-04-03T15:37:45;2.77;;;1.23;;
2972;SDS011;1496;51.404;7.232;2023-04-03T15:40:14;4.17;;;1.83;;
2972;SDS011;1496;51.404;7.232;2023-04-03T15:42:42;5.83;;;2.10;;
2972;SDS011;1496;51.404;7.232;2023-04-03T15:45:09;4.57;;;1.47;;
2972;SDS011;1496;51.404;7.232;2023-04-03T15:47:36;5.27;;;1.40;;
2972;SDS011;1496;51.404;7.232;2023-04-03T15:50:04;5.37;;;2.70;;
2972;SDS011;1496;51.404;7.232;2023-04-03T15:52:34;2.23;;;1.30;;
2972;SDS011;1496;51.404;7.232;2023-04-03T15:55:01;2.90;;;1.23;;
2972;SDS011;1496;51.404;7.232;2023-04-03T15:57:29;2.30;;;1.27;;
2972;SDS011;1496;51.404;7.232;2023-04-03T15:59:57;5.53;;;2.13;;
2972;SDS011;1496;51.404;7.232;2023-04-03T16:02:24;3.30;;;1.37;;
2972;SDS011;1496;51.404;7.232;2023-04-03T16:04:54;2.67;;;1.97;;
2972;SDS011;1496;51.404;7.232;2023-04-03T16:07:21;3.77;;;2.30;;
2972;SDS011;1496;51.404;7.232;2023-04-03T16:09:49;3.90;;;1.70;;
2972;SDS011;1496;51.404;7.232;2023-04-03T16:12:15;2.87;;;1.63;;
2972;SDS011;1496;51.404;7.232;2023-04-03T16:14:42;2.70;;;1.60;;
2972;SDS011;1496;51.404;7.232;2023-04-03T16:17:08;2.10;;;1.50;;
2972;SDS011;1496;51.404;7.232;2023-04-03T16:19:36;6.43;;;1.70;;
2972;SDS011;1496;51.404;7.232;2023-04-03T16:22:02;1.97;;;1.50;;
2972;SDS011;1496;51.404;7.232;2023-04-03T16:24:30;2.73;;;1.50;;
2972;SDS011;1496;51.404;7.232;2023-04-03T16:26:57;6.97;;;2.13;;
2972;SDS011;1496;51.404;7.232;2023-04-03T16:29:27;3.80;;;1.67;;
2972;SDS011;1496;51.404;7.232;2023-04-03T16:32:01;3.47;;;1.33;;
2972;SDS011;1496;51.404;7.232;2023-04-03T16:34:30;2.10;;;1.50;;
2972;SDS011;1496;51.404;7.232;2023-04-03T16:37:00;3.00;;;1.73;;
2972;SDS011;1496;51.404;7.232;2023-04-03T16:39:27;3.40;;;1.30;;
2972;SDS011;1496;51.404;7.232;2023-04-03T16:41:54;3.17;;;1.57;;
2972;SDS011;1496;51.404;7.232;2023-04-03T16:44:22;3.23;;;1.67;;
2972;SDS011;1496;51.404;7.232;2023-04-03T16:46:48;3.80;;;1.70;;
2972;SDS011;1496;51.404;7.232;2023-04-03T16:49:17;2.53;;;1.60;;
2972;SDS011;1496;51.404;7.232;2023-04-03T16:51:48;4.30;;;1.77;;
2972;SDS011;1496;51.404;7.232;2023-04-03T16:54:15;4.20;;;1.70;;
2972;SDS011;1496;51.404;7.232;2023-04-03T16:56:42;3.17;;;1.77;;
2972;SDS011;1496;51.404;7.232;2023-04-03T16:59:08;5.83;;;1.73;;
2972;SDS011;1496;51.404;7.232;2023-04-03T17:01:36;2.43;;;1.20;;
2972;SDS011;1496;51.404;7.232;2023-04-03T17:04:02;2.60;;;1.30;;
2972;SDS011;1496;51.404;7.232;2023-04-03T17:06:29;3.93;;;2.00;;
2972;SDS011;1496;51.404;7.232;2023-04-03T17:08:57;2.63;;;1.47;;
2972;SDS011;1496;51.404;7.232;2023-04-03T17:11:28;4.80;;;2.23;;
2972;SDS011;1496;51.404;7.232;2023-04-03T17:13:57;3.20;;;1.20;;
2972;SDS011;1496;51.404;7.232;2023-04-03T17:16:24;6.30;;;1.97;;
2972;SDS011;1496;51.404;7.232;2023-04-03T17:18:52;6.93;;;1.57;;